createdAt,value
2019-05-02T00:00:10.259Z,5.27
2019-05-02T00:03:19.088Z,5.30
2019-05-02T00:06:25.529Z,4.47
2019-05-02T00:09:33.484Z,4.47
2019-05-02T00:12:39.380Z,5.13
2019-05-02T00:15:45.268Z,5.63
2019-05-02T00:18:50.986Z,5.00
2019-05-02T00:21:56.817Z,4.90
2019-05-02T00:25:02.640Z,5.87
2019-05-02T00:28:12.393Z,5.13
2019-05-02T00:31:18.895Z,5.40
2019-05-02T00:34:24.552Z,6.47
2019-05-02T00:37:30.279Z,7.30
2019-05-02T00:40:36.123Z,5.87
2019-05-02T00:43:41.998Z,7.90
2019-05-02T00:46:48.387Z,8.50
2019-05-02T00:49:54.312Z,7.10
2019-05-02T00:53:00.001Z,6.73
2019-05-02T00:56:09.011Z,6.07
2019-05-02T00:59:13.380Z,5.63
2019-05-02T01:02:35.828Z,6.50
2019-05-02T01:05:41.487Z,6.40
2019-05-02T01:08:47.203Z,6.53
2019-05-02T01:11:56.720Z,9.27
2019-05-02T01:15:08.429Z,7.70
2019-05-02T01:18:11.367Z,7.60
2019-05-02T01:21:17.168Z,6.00
2019-05-02T01:24:22.991Z,7.73
2019-05-02T01:27:41.181Z,6.67
2019-05-02T01:31:13.131Z,7.10
2019-05-02T01:34:33.023Z,6.00
2019-05-02T01:38:16.142Z,6.47
2019-05-02T01:41:23.914Z,8.20
2019-05-02T01:44:31.196Z,7.20
2019-05-02T01:47:36.791Z,9.23
2019-05-02T01:50:42.536Z,9.23
2019-05-02T01:53:48.217Z,6.53
2019-05-02T01:56:54.157Z,6.20
2019-05-02T02:00:04.298Z,6.97
2019-05-02T02:03:09.032Z,6.33
2019-05-02T02:06:16.328Z,6.43
2019-05-02T02:09:22.037Z,5.80
2019-05-02T02:12:27.875Z,14.17
2019-05-02T02:15:33.625Z,6.70
2019-05-02T02:18:45.063Z,6.30
2019-05-02T02:22:09.716Z,7.30
2019-05-02T02:25:36.277Z,6.30
2019-05-02T02:28:40.221Z,6.40
2019-05-02T02:31:48.207Z,8.50
2019-05-02T02:34:53.351Z,6.47
2019-05-02T02:37:59.091Z,5.87
2019-05-02T02:41:06.496Z,6.30
2019-05-02T02:44:20.372Z,5.87
2019-05-02T02:47:26.410Z,5.63
2019-05-02T02:50:36.605Z,5.50
2019-05-02T02:53:39.655Z,8.33
2019-05-02T02:56:45.403Z,6.03
2019-05-02T02:59:51.085Z,5.50
2019-05-02T03:02:56.844Z,5.73
2019-05-02T03:06:05.471Z,7.57
2019-05-02T03:09:10.196Z,5.33
2019-05-02T03:12:41.631Z,5.97
2019-05-02T03:15:51.762Z,5.47
2019-05-02T03:18:57.627Z,5.23
2019-05-02T03:22:04.164Z,6.73
2019-05-02T03:25:11.509Z,6.37
2019-05-02T03:28:21.004Z,5.63
2019-05-02T03:31:30.222Z,6.60
2019-05-02T03:34:47.849Z,6.37
2019-05-02T03:37:44.741Z,6.70
2019-05-02T03:40:50.156Z,6.97
2019-05-02T03:44:10.418Z,7.50
2019-05-02T03:47:04.943Z,6.60
2019-05-02T03:50:11.087Z,5.90
2019-05-02T03:53:17.567Z,4.90
2019-05-02T03:56:24.151Z,5.97
2019-05-02T03:59:39.107Z,6.50
2019-05-02T04:02:40.597Z,5.87
2019-05-02T04:05:47.050Z,7.00
2019-05-02T04:08:58.874Z,5.27
2019-05-02T04:12:00.607Z,5.17
2019-05-02T04:15:09.556Z,5.53
2019-05-02T04:18:15.648Z,6.57
2019-05-02T04:21:25.922Z,6.33
2019-05-02T04:24:30.261Z,6.17
2019-05-02T04:27:36.286Z,6.93
2019-05-02T04:30:45.183Z,7.03
2019-05-02T04:33:49.403Z,7.50
2019-05-02T04:37:00.930Z,6.83
2019-05-02T04:40:03.465Z,9.20
2019-05-02T04:43:11.429Z,7.03
2019-05-02T04:46:25.562Z,9.43
2019-05-02T04:49:32.694Z,7.43
2019-05-02T04:52:38.425Z,6.80
2019-05-02T04:55:39.843Z,6.63
2019-05-02T04:58:45.524Z,11.10
2019-05-02T05:01:57.386Z,8.57
2019-05-02T05:04:58.749Z,7.97
2019-05-02T05:08:07.741Z,4.93
2019-05-02T05:11:13.874Z,7.67
2019-05-02T05:14:20.623Z,7.47
2019-05-02T05:17:32.724Z,7.70
2019-05-02T05:20:33.825Z,8.33
2019-05-02T05:24:07.807Z,10.73
2019-05-02T05:27:18.846Z,8.70
2019-05-02T05:30:21.076Z,10.00
2019-05-02T05:33:28.358Z,9.50
2019-05-02T05:36:34.257Z,9.60
2019-05-02T05:39:43.211Z,10.67
2019-05-02T05:42:48.142Z,10.37
2019-05-02T05:46:06.078Z,11.63
2019-05-02T05:49:01.382Z,9.80
2019-05-02T05:52:08.023Z,10.93
2019-05-02T05:55:20.483Z,8.17
2019-05-02T05:58:21.658Z,7.60
2019-05-02T06:01:34.052Z,9.13
2019-05-02T06:04:34.760Z,8.03
2019-05-02T06:07:43.969Z,11.20
2019-05-02T06:10:47.887Z,7.33
2019-05-02T06:13:53.670Z,8.13
2019-05-02T06:16:59.742Z,9.33
2019-05-02T06:20:06.475Z,8.87
2019-05-02T06:23:12.223Z,8.87
2019-05-02T06:26:19.251Z,10.97
2019-05-02T06:29:25.241Z,10.13
2019-05-02T06:32:33.692Z,8.90
2019-05-02T06:35:39.576Z,14.13
2019-05-02T06:38:46.405Z,10.97
2019-05-02T06:41:57.518Z,8.83
2019-05-02T06:45:01.049Z,8.83
2019-05-02T06:48:07.291Z,10.03
2019-05-02T06:51:19.593Z,11.70
2019-05-02T06:54:22.828Z,9.77
2019-05-02T06:57:28.066Z,10.33
2019-05-02T07:00:38.433Z,9.80
2019-05-02T07:03:46.148Z,11.23
2019-05-02T07:06:58.259Z,17.73
2019-05-02T07:09:56.545Z,13.80
2019-05-02T07:13:10.653Z,11.53
2019-05-02T07:16:37.790Z,13.57
2019-05-02T07:19:39.261Z,12.07
2019-05-02T07:22:45.712Z,11.63
2019-05-02T07:25:52.030Z,12.87
2019-05-02T07:28:57.860Z,14.77
2019-05-02T07:32:03.679Z,11.33
2019-05-02T07:35:10.622Z,13.47
2019-05-02T07:38:20.234Z,10.87
2019-05-02T07:41:24.176Z,12.33
2019-05-02T07:44:32.743Z,13.83
2019-05-02T07:47:40.162Z,12.47
2019-05-02T07:50:47.941Z,14.47
2019-05-02T07:53:55.564Z,13.50
2019-05-02T07:57:02.457Z,11.50
2019-05-02T08:00:11.222Z,14.30
2019-05-02T08:03:16.978Z,12.93
2019-05-02T08:06:35.035Z,8.87
2019-05-02T08:09:33.779Z,11.10
2019-05-02T08:12:39.575Z,13.40
2019-05-02T08:15:50.611Z,11.57
2019-05-02T08:18:53.949Z,10.40
2019-05-02T08:22:04.743Z,10.70
2019-05-02T08:25:10.436Z,9.03
2019-05-02T08:28:27.603Z,12.27
2019-05-02T08:31:33.296Z,12.03
2019-05-02T08:34:46.220Z,9.43
2019-05-02T08:37:55.832Z,7.33
2019-05-02T08:41:00.386Z,11.47
2019-05-02T08:44:06.208Z,12.27
2019-05-02T08:47:18.774Z,12.90
2019-05-02T08:50:19.638Z,8.97
2019-05-02T08:53:25.326Z,7.63
2019-05-02T08:56:31.104Z,7.93
2019-05-02T08:59:36.759Z,7.50
2019-05-02T09:02:42.489Z,8.97
2019-05-02T09:05:48.143Z,8.20
2019-05-02T09:08:53.870Z,13.80
2019-05-02T09:12:09.592Z,7.07
2019-05-02T09:15:07.730Z,11.77
2019-05-02T09:18:13.403Z,11.57
2019-05-02T09:21:19.306Z,8.87
2019-05-02T09:24:25.328Z,10.57
2019-05-02T09:27:31.803Z,9.50
2019-05-02T09:30:37.665Z,10.53
2019-05-02T09:33:46.837Z,7.93
2019-05-02T09:36:53.035Z,9.73
2019-05-02T09:39:58.493Z,8.63
2019-05-02T09:43:04.807Z,12.57
2019-05-02T09:46:12.929Z,11.90
2019-05-02T09:49:18.075Z,11.27
2019-05-02T09:52:23.752Z,8.20
2019-05-02T09:55:31.644Z,10.30
2019-05-02T09:58:41.904Z,13.57
2019-05-02T10:01:47.236Z,8.53
2019-05-02T10:04:53.179Z,12.53
2019-05-02T10:08:03.121Z,16.70
2019-05-02T10:11:06.905Z,7.60
2019-05-02T10:14:15.707Z,10.40
2019-05-02T10:17:23.104Z,8.73
2019-05-02T10:20:34.937Z,10.57
2019-05-02T10:23:59.129Z,8.20
2019-05-02T10:27:08.363Z,7.37
2019-05-02T10:30:21.724Z,7.80
2019-05-02T10:33:32.162Z,10.13
2019-05-02T10:36:35.455Z,8.27
2019-05-02T10:39:42.293Z,10.63
2019-05-02T10:42:48.378Z,6.37
2019-05-02T10:46:01.431Z,7.20
2019-05-02T10:49:32.291Z,8.43
2019-05-02T10:52:38.017Z,10.43
2019-05-02T10:55:43.706Z,5.43
2019-05-02T10:58:49.423Z,7.63
2019-05-02T11:02:22.110Z,6.03
2019-05-02T11:05:27.958Z,13.63
2019-05-02T11:08:36.766Z,7.90
2019-05-02T11:11:42.523Z,9.93
2019-05-02T11:14:56.690Z,6.40
2019-05-02T11:18:02.934Z,11.23
2019-05-02T11:21:08.840Z,8.17
2019-05-02T11:24:14.592Z,8.10
2019-05-02T11:27:22.129Z,6.80
2019-05-02T11:30:27.836Z,7.83
2019-05-02T11:33:33.662Z,6.40
2019-05-02T11:36:41.514Z,8.00
2019-05-02T11:39:52.707Z,12.90
2019-05-02T11:42:57.259Z,8.87
2019-05-02T11:46:07.111Z,6.90
2019-05-02T11:49:12.102Z,11.87
2019-05-02T11:52:17.380Z,8.67
2019-05-02T11:55:24.724Z,6.90
2019-05-02T11:58:32.495Z,9.40
2019-05-02T12:01:39.665Z,7.40
2019-05-02T12:04:47.229Z,7.07
2019-05-02T12:07:53.256Z,7.80
2019-05-02T12:11:01.277Z,6.87
2019-05-02T12:14:06.471Z,5.83
2019-05-02T12:17:12.257Z,5.23
2019-05-02T12:20:18.063Z,11.93
2019-05-02T12:23:23.876Z,4.97
2019-05-02T12:26:29.581Z,6.10
2019-05-02T12:29:35.325Z,5.93
2019-05-02T12:32:53.096Z,6.57
2019-05-02T12:35:58.971Z,6.13
2019-05-02T12:39:06.146Z,6.43
2019-05-02T12:42:13.335Z,9.67
2019-05-02T12:45:19.448Z,5.80
2019-05-02T12:48:25.177Z,8.23
2019-05-02T12:51:32.052Z,7.10
2019-05-02T12:54:38.032Z,4.73
2019-05-02T12:57:43.698Z,6.97
2019-05-02T13:00:49.453Z,7.63
2019-05-02T13:04:05.154Z,6.43
2019-05-02T13:07:12.803Z,11.70
2019-05-02T13:10:28.772Z,6.30
2019-05-02T13:13:34.724Z,7.07
2019-05-02T13:16:42.968Z,10.43
2019-05-02T13:19:56.212Z,5.30
2019-05-02T13:23:17.666Z,7.63
2019-05-02T13:26:27.058Z,8.30
2019-05-02T13:29:34.323Z,9.27
2019-05-02T13:32:42.779Z,5.87
2019-05-02T13:35:52.026Z,5.13
2019-05-02T13:39:12.351Z,9.33
2019-05-02T13:42:18.318Z,8.40
2019-05-02T13:46:02.292Z,7.73
2019-05-02T13:49:09.620Z,6.30
2019-05-02T13:52:15.779Z,10.33
2019-05-02T13:55:26.052Z,10.00
2019-05-02T13:58:33.211Z,5.33
2019-05-02T14:01:39.670Z,7.30
2019-05-02T14:04:46.014Z,7.43
2019-05-02T14:07:57.100Z,8.03
2019-05-02T14:11:28.708Z,6.13
2019-05-02T14:14:35.989Z,6.13
2019-05-02T14:17:43.703Z,6.53
2019-05-02T14:20:49.892Z,8.73
2019-05-02T14:23:55.999Z,4.30
2019-05-02T14:27:02.772Z,10.23
2019-05-02T14:30:09.648Z,5.57
2019-05-02T14:33:19.728Z,5.00
2019-05-02T14:36:25.594Z,6.80
2019-05-02T14:39:32.521Z,7.57
2019-05-02T14:42:38.559Z,6.87
2019-05-02T14:45:44.525Z,8.93
2019-05-02T14:48:52.243Z,7.43
2019-05-02T14:52:05.114Z,7.87
2019-05-02T14:55:06.666Z,6.03
2019-05-02T14:58:12.522Z,7.93
2019-05-02T15:01:22.565Z,7.50
2019-05-02T15:04:26.017Z,7.27
2019-05-02T15:07:34.132Z,9.53
2019-05-02T15:10:50.840Z,9.87
2019-05-02T15:13:52.495Z,10.37
2019-05-02T15:16:58.461Z,10.00
2019-05-02T15:20:04.982Z,4.60
2019-05-02T15:23:14.354Z,6.27
2019-05-02T15:26:18.082Z,7.63
2019-05-02T15:29:27.031Z,7.13
2019-05-02T15:32:44.778Z,7.23
2019-05-02T15:35:57.413Z,8.27
2019-05-02T15:42:13.020Z,6.43
2019-05-02T15:45:20.368Z,8.03
2019-05-02T15:48:27.758Z,6.87
2019-05-02T15:51:33.601Z,7.60
2019-05-02T15:54:40.283Z,6.20
2019-05-02T15:57:48.071Z,10.87
2019-05-02T16:01:18.421Z,6.80
2019-05-02T16:04:27.436Z,9.13
2019-05-02T16:07:33.206Z,7.87
2019-05-02T16:10:42.698Z,8.57
2019-05-02T16:13:52.715Z,9.83
2019-05-02T16:17:01.035Z,5.70
2019-05-02T16:20:18.391Z,9.70
2019-05-02T16:23:31.815Z,7.70
2019-05-02T16:26:35.265Z,6.73
2019-05-02T16:29:41.713Z,7.33
2019-05-02T16:32:58.930Z,6.43
2019-05-02T16:36:04.721Z,4.93
2019-05-02T16:39:13.371Z,7.80
2019-05-02T16:42:19.528Z,9.07
2019-05-02T16:45:25.584Z,6.73
2019-05-02T16:48:37.453Z,11.10
2019-05-02T16:51:38.878Z,8.03
2019-05-02T16:54:44.720Z,7.20
2019-05-02T16:57:51.963Z,9.63
2019-05-02T17:00:58.304Z,9.97
2019-05-02T17:04:06.713Z,8.80
2019-05-02T17:07:16.737Z,7.43
2019-05-02T17:10:29.817Z,11.23
2019-05-02T17:13:35.910Z,9.17
2019-05-02T17:16:42.129Z,20.07
2019-05-02T17:19:47.923Z,13.63
2019-05-02T17:23:01.902Z,9.73
2019-05-02T17:26:01.576Z,10.97
2019-05-02T17:29:07.551Z,11.60
2019-05-02T17:32:13.331Z,9.70
2019-05-02T17:35:22.102Z,8.03
2019-05-02T17:38:29.294Z,9.40
2019-05-02T17:41:37.128Z,10.67
2019-05-02T17:44:43.968Z,12.30
2019-05-02T17:47:49.782Z,11.33
2019-05-02T17:51:08.777Z,13.67
2019-05-02T17:54:17.541Z,9.17
2019-05-02T17:57:23.702Z,13.87
2019-05-02T18:00:33.521Z,10.97
2019-05-02T18:03:39.300Z,14.97
2019-05-02T18:06:46.845Z,9.87
2019-05-02T18:09:53.423Z,8.80
2019-05-02T18:13:02.667Z,9.83
2019-05-02T18:16:15.081Z,8.97
2019-05-02T18:19:20.587Z,10.57
2019-05-02T18:22:26.204Z,12.27
2019-05-02T18:25:30.767Z,8.10
2019-05-02T18:28:46.244Z,8.80
2019-05-02T18:31:47.258Z,11.03
2019-05-02T18:34:52.065Z,10.67
2019-05-02T18:37:57.958Z,13.23
2019-05-02T18:41:07.754Z,14.90
2019-05-02T18:44:17.089Z,15.10
2019-05-02T18:47:24.639Z,13.10
2019-05-02T18:50:36.746Z,12.90
2019-05-02T18:53:42.513Z,10.40
2019-05-02T18:56:51.283Z,11.17
2019-05-02T18:59:56.467Z,8.30
2019-05-02T19:03:07.567Z,13.43
2019-05-02T19:06:11.682Z,13.57
2019-05-02T19:09:21.859Z,11.43
2019-05-02T19:12:26.071Z,12.13
2019-05-02T19:15:34.644Z,9.13
2019-05-02T19:18:42.557Z,11.27
2019-05-02T19:21:47.779Z,11.97
2019-05-02T19:24:53.513Z,12.20
2019-05-02T19:28:05.968Z,9.83
2019-05-02T19:31:11.737Z,10.27
2019-05-02T19:34:22.888Z,14.10
2019-05-02T19:37:24.966Z,7.90
2019-05-02T19:40:31.805Z,11.53
2019-05-02T19:43:40.246Z,8.53
2019-05-02T19:46:47.606Z,10.33
2019-05-02T19:49:54.420Z,12.80
2019-05-02T19:53:04.098Z,9.90
2019-05-02T19:56:08.617Z,11.73
2019-05-02T19:59:16.828Z,9.03
2019-05-02T20:02:23.769Z,9.87
2019-05-02T20:05:29.787Z,13.23
2019-05-02T20:08:35.477Z,11.60
2019-05-02T20:11:42.540Z,12.27
2019-05-02T20:14:48.894Z,12.93
2019-05-02T20:18:00.442Z,12.20
2019-05-02T20:21:23.426Z,14.03
2019-05-02T20:24:22.750Z,12.93
2019-05-02T20:27:28.936Z,14.53
2019-05-02T20:30:34.839Z,13.53
2019-05-02T20:33:40.642Z,12.90
2019-05-02T20:36:46.573Z,14.90
2019-05-02T20:39:52.395Z,14.73
2019-05-02T20:42:58.211Z,16.63
2019-05-02T20:46:04.198Z,15.30
2019-05-02T20:49:10.305Z,17.10
2019-05-02T20:52:16.064Z,13.87
2019-05-02T20:55:21.975Z,12.57
2019-05-02T20:58:27.665Z,14.93
2019-05-02T21:01:33.381Z,13.30
2019-05-02T21:04:42.327Z,12.80
2019-05-02T21:08:05.440Z,13.27
2019-05-02T21:11:12.422Z,14.63
2019-05-02T21:14:18.373Z,12.00
2019-05-02T21:17:24.253Z,21.90
2019-05-02T21:20:37.537Z,13.43
2019-05-02T21:23:47.334Z,12.60
2019-05-02T21:26:52.509Z,14.60
2019-05-02T21:30:02.370Z,10.67
2019-05-02T21:33:22.386Z,9.93
2019-05-02T21:36:28.129Z,11.30
2019-05-02T21:39:33.957Z,18.27
2019-05-02T21:42:39.742Z,12.50
2019-05-02T21:45:52.796Z,15.60
2019-05-02T21:48:58.607Z,11.60
2019-05-02T21:52:16.044Z,12.83
2019-05-02T21:55:39.349Z,16.20
2019-05-02T21:59:03.043Z,16.87
2019-05-02T22:02:15.539Z,15.63
2019-05-02T22:05:28.968Z,19.47
2019-05-02T22:08:34.763Z,15.87
2019-05-02T22:11:42.891Z,17.97
2019-05-02T22:14:48.911Z,20.03
2019-05-02T22:17:54.728Z,16.63
2019-05-02T22:21:01.694Z,18.77
2019-05-02T22:24:11.538Z,13.30
2019-05-02T22:27:15.116Z,16.07
2019-05-02T22:30:21.959Z,13.43
2019-05-02T22:33:27.935Z,11.13
2019-05-02T22:36:33.742Z,14.20
2019-05-02T22:39:53.614Z,10.03
2019-05-02T22:42:59.299Z,13.10
2019-05-02T22:46:06.965Z,10.87
2019-05-02T22:49:14.535Z,12.03
2019-05-02T22:52:21.830Z,9.67
2019-05-02T22:55:27.675Z,10.83
2019-05-02T22:58:33.412Z,10.27
2019-05-02T23:01:39.205Z,14.23
2019-05-02T23:04:44.971Z,13.40
2019-05-02T23:07:52.281Z,10.37
2019-05-02T23:10:58.169Z,10.27
2019-05-02T23:14:03.999Z,12.57
2019-05-02T23:17:09.698Z,9.80
2019-05-02T23:20:15.653Z,9.53
2019-05-02T23:23:21.581Z,16.90
2019-05-02T23:26:56.690Z,13.70
2019-05-02T23:30:03.005Z,10.97
2019-05-02T23:33:09.201Z,11.60
2019-05-02T23:36:14.966Z,11.93
2019-05-02T23:39:20.823Z,14.37
2019-05-02T23:42:26.513Z,13.43
2019-05-02T23:45:32.327Z,13.13
2019-05-02T23:48:38.108Z,10.30
2019-05-02T23:51:43.885Z,12.03
2019-05-02T23:54:52.323Z,14.83
2019-05-02T23:57:57.063Z,13.20
